Wetterdaten: Woche 30.05.05 - 05.06.05 (KW22)
Datum Zeit Temperatur Luftfeuchte Luftdruck Niederschlag Wind Richtung Sonne Solar Taupunkt Windchill
30.05.2005 00:00 19.3 C 86 % 1013.9 hPa 0.0 l/m 2.7 km/h (1 Bft) O-SO 0.00 h 0 W/m 16.9 C 19.3 C
30.05.2005 01:00 19.1 C 89 % 1014.7 hPa 0.0 l/m 2.7 km/h (1 Bft) O-SO 0.00 h 0 W/m 17.3 C 19.1 C
30.05.2005 02:00 18.3 C 94 % 1014.4 hPa 0.0 l/m 5.5 km/h (1 Bft) O-SO 0.00 h 0 W/m 17.3 C 18.3 C
30.05.2005 03:00 18.6 C 92 % 1015.0 hPa 0.0 l/m 0.9 km/h (0 Bft) O-SO 0.00 h 0 W/m 17.3 C 18.6 C
30.05.2005 04:00 18.3 C 94 % 1015.0 hPa 0.0 l/m 1.2 km/h (1 Bft) O-SO 0.00 h 0 W/m 17.4 C 18.3 C
30.05.2005 05:00 17.7 C 96 % 1015.4 hPa 0.0 l/m 0.8 km/h (0 Bft) O-SO 0.10 h 13 W/m 17.0 C 17.7 C
30.05.2005 06:00 19.1 C 78 % 1016.0 hPa 0.0 l/m 0.7 km/h (0 Bft) W-SW 0.07 h 60 W/m 15.1 C 19.1 C
30.05.2005 07:00 21.1 C 67 % 1015.7 hPa 0.0 l/m 9.3 km/h (2 Bft) W-NW 1.00 h 256 W/m 14.8 C 21.1 C
30.05.2005 08:00 21.9 C 67 % 1016.3 hPa 0.0 l/m 11.1 km/h (2 Bft) W-NW 0.47 h 284 W/m 15.4 C 21.9 C
30.05.2005 09:00 21.8 C 68 % 1017.1 hPa 0.0 l/m 17.7 km/h (3 Bft) W-NW 0.47 h 284 W/m 15.6 C 21.8 C
30.05.2005 10:00 20.9 C 72 % 1017.8 hPa 0.0 l/m 11.8 km/h (2 Bft) W-NW 0.00 h 58 W/m 15.6 C 20.9 C
30.05.2005 11:00 20.1 C 79 % 1018.9 hPa 0.0 l/m 13.4 km/h (3 Bft) W-NW 0.00 h 78 W/m 16.3 C 20.1 C
30.05.2005 12:00 19.4 C 86 % 1019.0 hPa 0.3 l/m 3.2 km/h (1 Bft) W-NW 0.00 h 142 W/m 17.1 C 19.4 C
30.05.2005 13:00 18.9 C 90 % 1019.1 hPa 1.0 l/m 6.8 km/h (2 Bft) W-NW 0.00 h 124 W/m 17.2 C 18.9 C
30.05.2005 14:00 18.2 C 91 % 1019.2 hPa 1.3 l/m 5.1 km/h (1 Bft) W-NW 0.00 h 134 W/m 16.8 C 18.2 C
30.05.2005 15:00 18.5 C 93 % 1019.2 hPa 3.2 l/m 0.9 km/h (0 Bft) W 0.20 h 235 W/m 17.3 C 18.5 C
30.05.2005 16:00 17.6 C 94 % 1019.7 hPa 0.6 l/m 14.1 km/h (3 Bft) W-NW 0.00 h 144 W/m 16.5 C 17.6 C
30.05.2005 17:00 17.2 C 92 % 1020.1 hPa 0.6 l/m 16.9 km/h (3 Bft) NW 0.00 h 84 W/m 15.9 C 17.2 C
30.05.2005 18:00 16.3 C 94 % 1020.5 hPa 0.3 l/m 26.7 km/h (4 Bft) NW 0.00 h 47 W/m 15.3 C 16.3 C
30.05.2005 19:00 15.3 C 90 % 1021.1 hPa 0.0 l/m 36.5 km/h (5 Bft) NW 0.00 h 48 W/m 13.7 C 15.3 C
30.05.2005 20:00 14.9 C 86 % 1022.5 hPa 0.0 l/m 24.6 km/h (4 Bft) NW 0.87 h 80 W/m 12.5 C 14.9 C
30.05.2005 21:00 14.3 C 86 % 1023.2 hPa 0.0 l/m 22.3 km/h (4 Bft) W-NW 0.03 h 13 W/m 12.0 C 14.3 C
30.05.2005 22:00 13.5 C 91 % 1024.8 hPa 0.0 l/m 11.7 km/h (2 Bft) W-NW 0.00 h 0 W/m 12.1 C 13.5 C
30.05.2005 23:00 12.3 C 96 % 1025.8 hPa 0.0 l/m 3.1 km/h (1 Bft) W-NW 0.00 h 0 W/m 11.7 C 12.3 C
31.05.2005 00:00 12.8 C 97 % 1026.7 hPa 0.0 l/m 1.6 km/h (1 Bft) NW 0.00 h 0 W/m 12.3 C 12.8 C
31.05.2005 01:00 13.1 C 94 % 1027.1 hPa 0.0 l/m 0.1 km/h (0 Bft) N 0.00 h 0 W/m 12.1 C 13.1 C
31.05.2005 02:00 12.7 C 94 % 1027.2 hPa 0.0 l/m 0.4 km/h (0 Bft) NW 0.00 h 0 W/m 11.8 C 12.7 C
31.05.2005 03:00 10.6 C 96 % 1027.5 hPa 0.0 l/m 0.1 km/h (0 Bft) N 0.00 h 0 W/m 10.0 C 10.6 C
31.05.2005 04:00 8.9 C 99 % 1027.7 hPa 0.0 l/m 0.6 km/h (0 Bft) S 0.00 h 0 W/m 8.8 C 8.9 C
31.05.2005 05:00 7.8 C 100 % 1027.5 hPa 0.0 l/m 0.3 km/h (0 Bft) SO 0.12 h 14 W/m 7.8 C 7.8 C
31.05.2005 06:00 8.1 C 100 % 1027.8 hPa 0.0 l/m 0.0 km/h (0 Bft) N 0.03 h 51 W/m 8.0 C 8.1 C
31.05.2005 07:00 9.4 C 92 % 1027.6 hPa 0.0 l/m 1.4 km/h (1 Bft) W-NW 1.00 h 287 W/m 8.3 C 9.3 C
31.05.2005 08:00 11.3 C 84 % 1026.9 hPa 0.0 l/m 1.1 km/h (0 Bft) SW 0.77 h 378 W/m 8.6 C 11.3 C
31.05.2005 09:00 13.3 C 73 % 1026.1 hPa 0.0 l/m 1.1 km/h (1 Bft) S 0.92 h 532 W/m 8.6 C 13.3 C
31.05.2005 10:00 15.3 C 65 % 1025.8 hPa 0.0 l/m 6.9 km/h (2 Bft) O-SO 0.93 h 633 W/m 8.7 C 15.3 C
31.05.2005 11:00 16.0 C 59 % 1025.5 hPa 0.0 l/m 2.1 km/h (1 Bft) O-SO 1.00 h 714 W/m 8.0 C 16.0 C
31.05.2005 12:00 17.0 C 51 % 1024.6 hPa 0.0 l/m 2.0 km/h (1 Bft) NW 0.72 h 707 W/m 6.8 C 17.0 C
31.05.2005 13:00 18.2 C 46 % 1024.4 hPa 0.0 l/m 2.3 km/h (1 Bft) W-NW 1.00 h 778 W/m 6.5 C 18.2 C
31.05.2005 14:00 18.8 C 48 % 1023.9 hPa 0.0 l/m 1.0 km/h (0 Bft) W-NW 0.95 h 581 W/m 7.4 C 18.8 C
31.05.2005 15:00 19.4 C 48 % 1023.2 hPa 0.0 l/m 3.8 km/h (1 Bft) W-NW 0.90 h 638 W/m 8.1 C 19.4 C
31.05.2005 16:00 20.6 C 44 % 1022.4 hPa 0.0 l/m 6.4 km/h (2 Bft) W-NW 1.00 h 722 W/m 7.8 C 20.6 C
31.05.2005 17:00 20.4 C 46 % 1022.0 hPa 0.0 l/m 6.9 km/h (2 Bft) W-NW 0.75 h 423 W/m 8.2 C 20.4 C
31.05.2005 18:00 19.3 C 45 % 1022.2 hPa 0.0 l/m 12.9 km/h (3 Bft) W-NW 0.93 h 294 W/m 6.9 C 19.3 C
31.05.2005 19:00 18.6 C 50 % 1022.3 hPa 0.0 l/m 2.6 km/h (1 Bft) W-NW 0.37 h 129 W/m 7.9 C 18.6 C
31.05.2005 20:00 17.5 C 56 % 1022.4 hPa 0.0 l/m 4.0 km/h (1 Bft) SO 0.57 h 51 W/m 8.6 C 17.5 C
31.05.2005 21:00 15.5 C 58 % 1023.2 hPa 0.0 l/m 1.5 km/h (1 Bft) N-NO 0.08 h 11 W/m 7.2 C 15.5 C
31.05.2005 22:00 14.2 C 62 % 1023.9 hPa 0.0 l/m 0.0 km/h (0 Bft) N 0.00 h 0 W/m 7.0 C 14.2 C
31.05.2005 23:00 13.1 C 73 % 1024.0 hPa 0.0 l/m 0.0 km/h (0 Bft) N 0.00 h 0 W/m 8.4 C 13.1 C
01.06.2005 00:00 12.2 C 78 % 1024.1 hPa 0.0 l/m 0.4 km/h (0 Bft) NO 0.00 h 0 W/m 8.5 C 12.2 C
01.06.2005 01:00 11.7 C 82 % 1024.2 hPa 0.0 l/m 0.0 km/h (0 Bft) N 0.00 h 0 W/m 8.7 C 11.7 C
01.06.2005 02:00 10.2 C 87 % 1024.4 hPa 0.0 l/m 0.0 km/h (0 Bft) N 0.00 h 0 W/m 8.2 C 10.2 C
01.06.2005 03:00 9.7 C 91 % 1023.9 hPa 0.0 l/m 0.0 km/h (0 Bft) N 0.00 h 0 W/m 8.3 C 9.7 C
01.06.2005 04:00 8.9 C 96 % 1023.7 hPa 0.0 l/m 0.3 km/h (0 Bft) O 0.00 h 0 W/m 8.3 C 8.9 C
01.06.2005 05:00 8.2 C 98 % 1023.6 hPa 0.0 l/m 0.0 km/h (0 Bft) N 0.13 h 14 W/m 8.0 C 8.2 C
01.06.2005 06:00 8.9 C 95 % 1024.2 hPa 0.0 l/m 0.0 km/h (0 Bft) N 0.03 h 53 W/m 8.2 C 8.9 C
01.06.2005 07:00 10.4 C 84 % 1023.5 hPa 0.0 l/m 0.2 km/h (0 Bft) O 1.00 h 258 W/m 7.7 C 10.4 C
01.06.2005 08:00 12.4 C 75 % 1023.1 hPa 0.0 l/m 0.5 km/h (0 Bft) N-NO 1.00 h 422 W/m 8.0 C 12.4 C
01.06.2005 09:00 15.3 C 61 % 1022.7 hPa 0.0 l/m 2.6 km/h (1 Bft) O 1.00 h 562 W/m 7.8 C 15.3 C
01.06.2005 10:00 17.0 C 56 % 1022.5 hPa 0.0 l/m 3.5 km/h (1 Bft) O 1.00 h 680 W/m 8.1 C 17.0 C
01.06.2005 11:00 18.4 C 50 % 1022.0 hPa 0.0 l/m 5.8 km/h (2 Bft) O-SO 0.90 h 730 W/m 7.9 C 18.4 C
01.06.2005 12:00 19.5 C 48 % 1021.1 hPa 0.0 l/m 7.5 km/h (2 Bft) O-SO 0.93 h 863 W/m 8.1 C 19.5 C
01.06.2005 13:00 20.3 C 44 % 1021.0 hPa 0.0 l/m 10.2 km/h (2 Bft) O-SO 0.93 h 736 W/m 7.7 C 20.3 C
01.06.2005 14:00 21.0 C 42 % 1020.4 hPa 0.0 l/m 7.1 km/h (2 Bft) O-SO 0.93 h 777 W/m 7.7 C 21.0 C
01.06.2005 15:00 22.0 C 39 % 1019.7 hPa 0.0 l/m 5.5 km/h (1 Bft) O-SO 1.00 h 788 W/m 7.3 C 22.0 C
01.06.2005 16:00 22.3 C 35 % 1019.3 hPa 0.0 l/m 5.8 km/h (2 Bft) O-SO 0.97 h 666 W/m 6.2 C 22.3 C
01.06.2005 17:00 22.4 C 38 % 1018.7 hPa 0.0 l/m 9.8 km/h (2 Bft) O-SO 0.92 h 550 W/m 7.2 C 22.4 C
01.06.2005 18:00 21.8 C 37 % 1018.7 hPa 0.0 l/m 7.3 km/h (2 Bft) O-SO 0.83 h 362 W/m 6.4 C 21.8 C
01.06.2005 19:00 20.2 C 44 % 1018.9 hPa 0.0 l/m 7.3 km/h (2 Bft) O-SO 0.67 h 165 W/m 7.3 C 20.2 C
01.06.2005 20:00 17.6 C 55 % 1019.3 hPa 0.0 l/m 5.3 km/h (1 Bft) O-SO 0.58 h 53 W/m 8.3 C 17.6 C
01.06.2005 21:00 14.9 C 67 % 1019.6 hPa 0.0 l/m 3.3 km/h (1 Bft) O-SO 0.05 h 8 W/m 8.7 C 14.9 C
01.06.2005 22:00 13.1 C 74 % 1019.9 hPa 0.0 l/m 1.1 km/h (0 Bft) O-SO 0.00 h 0 W/m 8.5 C 13.1 C
01.06.2005 23:00 11.8 C 80 % 1020.0 hPa 0.0 l/m 1.2 km/h (1 Bft) O-SO 0.00 h 0 W/m 8.5 C 11.8 C
02.06.2005 00:00 11.4 C 85 % 1020.1 hPa 0.0 l/m 0.0 km/h (0 Bft) N 0.00 h 0 W/m 9.0 C 11.4 C
02.06.2005 01:00 11.0 C 85 % 1020.1 hPa 0.0 l/m 0.1 km/h (0 Bft) N 0.00 h 0 W/m 8.5 C 11.0 C
02.06.2005 02:00 10.2 C 87 % 1020.3 hPa 0.0 l/m 0.0 km/h (0 Bft) N 0.00 h 0 W/m 8.1 C 10.2 C
02.06.2005 03:00 9.2 C 93 % 1020.4 hPa 0.0 l/m 2.7 km/h (1 Bft) O-SO 0.00 h 0 W/m 8.1 C 9.1 C
02.06.2005 04:00 9.1 C 92 % 1020.4 hPa 0.0 l/m 0.0 km/h (0 Bft) N 0.00 h 0 W/m 7.8 C 9.1 C
02.06.2005 05:00 8.3 C 96 % 1020.5 hPa 0.0 l/m 0.0 km/h (0 Bft) N 0.10 h 13 W/m 7.6 C 8.3 C
02.06.2005 06:00 8.5 C 95 % 1020.5 hPa 0.0 l/m 0.4 km/h (0 Bft) O 0.00 h 51 W/m 7.7 C 8.5 C
02.06.2005 07:00 10.4 C 86 % 1020.2 hPa 0.0 l/m 0.0 km/h (0 Bft) N 1.00 h 259 W/m 8.2 C 10.4 C
02.06.2005 08:00 12.4 C 78 % 1020.0 hPa 0.0 l/m 0.6 km/h (0 Bft) N-NW 1.00 h 415 W/m 8.7 C 12.4 C
02.06.2005 09:00 14.9 C 66 % 1019.6 hPa 0.0 l/m 2.2 km/h (1 Bft) W-NW 1.00 h 564 W/m 8.6 C 14.9 C
02.06.2005 10:00 17.2 C 57 % 1019.1 hPa 0.0 l/m 3.8 km/h (1 Bft) W-NW 1.00 h 692 W/m 8.4 C 17.2 C
02.06.2005 11:00 19.2 C 51 % 1018.1 hPa 0.0 l/m 4.8 km/h (1 Bft) W-NW 1.00 h 796 W/m 8.9 C 19.2 C
02.06.2005 12:00 21.2 C 43 % 1017.8 hPa 0.0 l/m 3.5 km/h (1 Bft) W-NW 1.00 h 847 W/m 8.1 C 21.2 C
02.06.2005 13:00 22.7 C 39 % 1016.5 hPa 0.0 l/m 4.8 km/h (1 Bft) W-NW 1.00 h 862 W/m 8.0 C 22.7 C
02.06.2005 14:00 23.3 C 37 % 1016.5 hPa 0.0 l/m 4.2 km/h (1 Bft) W-NW 1.00 h 798 W/m 7.8 C 23.3 C
02.06.2005 15:00 24.7 C 35 % 1015.6 hPa 0.0 l/m 3.7 km/h (1 Bft) W-NW 1.00 h 787 W/m 8.2 C 24.7 C
02.06.2005 16:00 25.7 C 34 % 1015.1 hPa 0.0 l/m 2.6 km/h (1 Bft) W-SW 1.00 h 688 W/m 8.8 C 25.7 C
02.06.2005 17:00 26.0 C 32 % 1014.6 hPa 0.0 l/m 4.9 km/h (1 Bft) N-NW 1.00 h 543 W/m 8.0 C 26.0 C
02.06.2005 18:00 25.8 C 34 % 1014.1 hPa 0.0 l/m 0.9 km/h (0 Bft) W-NW 1.00 h 396 W/m 8.6 C 25.8 C
02.06.2005 19:00 24.6 C 39 % 1014.2 hPa 0.0 l/m 0.0 km/h (0 Bft) N 0.70 h 161 W/m 9.5 C 24.6 C
02.06.2005 20:00 20.5 C 56 % 1014.7 hPa 0.0 l/m 2.5 km/h (1 Bft) SO 0.03 h 38 W/m 11.4 C 20.5 C
02.06.2005 21:00 17.8 C 68 % 1015.1 hPa 0.0 l/m 0.4 km/h (0 Bft) SO 0.00 h 7 W/m 11.9 C 17.8 C
02.06.2005 22:00 15.9 C 75 % 1015.6 hPa 0.0 l/m 0.4 km/h (0 Bft) SO 0.00 h 0 W/m 11.4 C 15.9 C
02.06.2005 23:00 14.4 C 80 % 1016.0 hPa 0.0 l/m 0.7 km/h (0 Bft) SO 0.00 h 0 W/m 11.0 C 14.4 C
03.06.2005 00:00 13.4 C 84 % 1015.7 hPa 0.0 l/m 0.5 km/h (0 Bft) SO 0.00 h 0 W/m 10.7 C 13.4 C
03.06.2005 01:00 12.4 C 87 % 1015.8 hPa 0.0 l/m 2.2 km/h (1 Bft) SO 0.00 h 0 W/m 10.4 C 12.4 C
03.06.2005 02:00 11.8 C 89 % 1015.9 hPa 0.0 l/m 1.0 km/h (0 Bft) O-SO 0.00 h 0 W/m 10.0 C 11.8 C
03.06.2005 03:00 11.0 C 93 % 1016.0 hPa 0.0 l/m 0.7 km/h (0 Bft) O-SO 0.00 h 0 W/m 10.0 C 11.0 C
03.06.2005 04:00 10.4 C 98 % 1016.1 hPa 0.0 l/m 0.2 km/h (0 Bft) O-SO 0.00 h 0 W/m 10.1 C 10.4 C
03.06.2005 05:00 9.9 C 99 % 1016.1 hPa 0.0 l/m 0.4 km/h (0 Bft) O-SO 0.27 h 17 W/m 9.7 C 9.9 C
03.06.2005 06:00 10.6 C 96 % 1016.1 hPa 0.0 l/m 0.0 km/h (0 Bft) N 0.13 h 51 W/m 9.9 C 10.6 C
03.06.2005 07:00 12.4 C 89 % 1015.8 hPa 0.0 l/m 0.0 km/h (0 Bft) N 0.93 h 255 W/m 10.6 C 12.4 C
03.06.2005 08:00 14.3 C 80 % 1015.6 hPa 0.0 l/m 0.0 km/h (0 Bft) N 1.00 h 425 W/m 10.9 C 14.3 C
03.06.2005 09:00 17.2 C 75 % 1015.2 hPa 0.0 l/m 0.9 km/h (0 Bft) SO 1.00 h 573 W/m 12.7 C 17.2 C
03.06.2005 10:00 19.9 C 64 % 1014.8 hPa 0.0 l/m 0.8 km/h (0 Bft) O-SO 1.00 h 700 W/m 12.8 C 19.9 C
03.06.2005 11:00 22.5 C 53 % 1013.5 hPa 0.0 l/m 5.0 km/h (1 Bft) O-SO 1.00 h 794 W/m 12.4 C 22.5 C
03.06.2005 12:00 24.9 C 46 % 1013.0 hPa 0.0 l/m 3.7 km/h (1 Bft) S-SO 1.00 h 843 W/m 12.5 C 24.9 C
03.06.2005 13:00 26.8 C 41 % 1011.9 hPa 0.0 l/m 2.6 km/h (1 Bft) O-SO 1.00 h 858 W/m 12.4 C 26.8 C
03.06.2005 14:00 28.1 C 37 % 1011.1 hPa 0.0 l/m 3.3 km/h (1 Bft) NO 1.00 h 839 W/m 11.9 C 28.1 C
03.06.2005 15:00 29.4 C 34 % 1010.2 hPa 0.0 l/m 6.8 km/h (2 Bft) W 1.00 h 783 W/m 11.9 C 29.4 C
03.06.2005 16:00 30.3 C 32 % 1009.4 hPa 0.0 l/m 4.3 km/h (1 Bft) NW 1.00 h 679 W/m 11.7 C 30.3 C
03.06.2005 17:00 29.3 C 33 % 1008.5 hPa 0.0 l/m 4.4 km/h (1 Bft) W 0.80 h 390 W/m 11.4 C 29.3 C
03.06.2005 18:00 27.7 C 37 % 1008.6 hPa 0.0 l/m 6.7 km/h (2 Bft) W 0.63 h 261 W/m 11.7 C 27.7 C
03.06.2005 19:00 27.2 C 41 % 1008.4 hPa 0.0 l/m 2.9 km/h (1 Bft) SO 0.73 h 178 W/m 12.9 C 27.2 C
03.06.2005 20:00 25.3 C 45 % 1009.0 hPa 0.0 l/m 6.9 km/h (2 Bft) SO 0.00 h 28 W/m 12.5 C 25.3 C
03.06.2005 21:00 23.6 C 50 % 1009.7 hPa 0.0 l/m 16.6 km/h (3 Bft) W-NW 0.00 h 4 W/m 12.6 C 23.6 C
03.06.2005 22:00 21.6 C 50 % 1011.5 hPa 0.0 l/m 48.3 km/h (6 Bft) W-NW 0.00 h 0 W/m 10.6 C 21.6 C
03.06.2005 23:00 19.8 C 60 % 1013.1 hPa 0.0 l/m 40.2 km/h (6 Bft) NW 0.00 h 0 W/m 11.7 C 19.8 C
04.06.2005 00:00 18.7 C 69 % 1014.9 hPa 0.0 l/m 21.4 km/h (4 Bft) NW 0.00 h 0 W/m 12.9 C 18.7 C
04.06.2005 01:00 16.7 C 89 % 1016.3 hPa 0.3 l/m 1.9 km/h (1 Bft) O-SO 0.00 h 0 W/m 15.0 C 16.7 C
04.06.2005 02:00 16.4 C 96 % 1015.6 hPa 0.3 l/m 3.7 km/h (1 Bft) SO 0.00 h 0 W/m 15.8 C 16.4 C
04.06.2005 03:00 16.3 C 98 % 1015.4 hPa 0.6 l/m 0.5 km/h (0 Bft) W-SW 0.00 h 0 W/m 16.1 C 16.3 C
04.06.2005 04:00 15.9 C 98 % 1015.3 hPa 0.0 l/m 0.3 km/h (0 Bft) W-NW 0.00 h 0 W/m 15.6 C 15.9 C
04.06.2005 05:00 15.7 C 97 % 1015.4 hPa 0.0 l/m 0.1 km/h (0 Bft) W-NW 0.00 h 2 W/m 15.2 C 15.7 C
04.06.2005 06:00 15.6 C 98 % 1015.4 hPa 0.0 l/m 0.2 km/h (0 Bft) SO 0.00 h 11 W/m 15.3 C 15.6 C
04.06.2005 07:00 15.6 C 98 % 1015.6 hPa 0.3 l/m 0.1 km/h (0 Bft) O 0.00 h 27 W/m 15.3 C 15.6 C
04.06.2005 08:00 15.6 C 92 % 1016.4 hPa 0.0 l/m 10.4 km/h (2 Bft) W-NW 0.00 h 76 W/m 14.3 C 15.6 C
04.06.2005 09:00 15.8 C 87 % 1016.4 hPa 0.0 l/m 24.4 km/h (4 Bft) W-NW 0.00 h 111 W/m 13.6 C 15.8 C
04.06.2005 10:00 16.0 C 80 % 1017.3 hPa 0.0 l/m 32.0 km/h (5 Bft) NW 0.08 h 260 W/m 12.6 C 16.0 C
04.06.2005 11:00 16.8 C 73 % 1017.3 hPa 0.0 l/m 23.1 km/h (4 Bft) W-NW 0.60 h 556 W/m 12.0 C 16.8 C
04.06.2005 12:00 17.6 C 67 % 1017.2 hPa 0.0 l/m 32.2 km/h (5 Bft) W-NW 0.28 h 426 W/m 11.3 C 17.6 C
04.06.2005 13:00 18.4 C 61 % 1017.1 hPa 0.0 l/m 36.1 km/h (5 Bft) NW 0.53 h 596 W/m 10.8 C 18.4 C
04.06.2005 14:00 19.2 C 55 % 1017.0 hPa 0.0 l/m 32.7 km/h (5 Bft) W-NW 1.00 h 799 W/m 10.0 C 19.2 C
04.06.2005 15:00 20.8 C 46 % 1016.0 hPa 0.0 l/m 31.6 km/h (5 Bft) NW 0.83 h 685 W/m 8.8 C 20.8 C
04.06.2005 16:00 20.9 C 46 % 1015.8 hPa 0.0 l/m 29.1 km/h (5 Bft) W-NW 1.00 h 653 W/m 8.7 C 20.9 C
04.06.2005 17:00 20.6 C 47 % 1016.8 hPa 0.0 l/m 28.6 km/h (4 Bft) NW 0.90 h 485 W/m 8.9 C 20.6 C
04.06.2005 18:00 20.2 C 43 % 1016.9 hPa 0.0 l/m 26.0 km/h (4 Bft) NW 0.97 h 347 W/m 7.3 C 20.2 C
04.06.2005 19:00 19.0 C 44 % 1017.0 hPa 0.0 l/m 24.7 km/h (4 Bft) NW 0.37 h 145 W/m 6.5 C 19.0 C
04.06.2005 20:00 17.9 C 49 % 1017.2 hPa 0.0 l/m 17.5 km/h (3 Bft) W-NW 0.07 h 48 W/m 7.0 C 17.9 C
04.06.2005 21:00 16.5 C 56 % 1017.3 hPa 0.0 l/m 13.0 km/h (3 Bft) W-NW 0.13 h 10 W/m 7.6 C 16.5 C
04.06.2005 22:00 15.7 C 63 % 1018.4 hPa 0.0 l/m 10.7 km/h (2 Bft) W-NW 0.00 h 0 W/m 8.5 C 15.7 C
04.06.2005 23:00 15.2 C 67 % 1018.5 hPa 0.0 l/m 6.0 km/h (2 Bft) W-NW 0.00 h 0 W/m 9.1 C 15.2 C
05.06.2005 00:00 15.2 C 65 % 1018.5 hPa 0.0 l/m 13.9 km/h (3 Bft) W-NW 0.00 h 0 W/m 8.6 C 15.2 C
05.06.2005 01:00 15.4 C 62 % 1018.6 hPa 0.0 l/m 16.6 km/h (3 Bft) W-NW 0.00 h 0 W/m 8.2 C 15.4 C
05.06.2005 02:00 15.0 C 64 % 1019.6 hPa 0.0 l/m 12.5 km/h (3 Bft) W-NW 0.00 h 0 W/m 8.4 C 15.0 C
05.06.2005 03:00 14.7 C 65 % 1019.6 hPa 0.0 l/m 12.4 km/h (3 Bft) W-NW 0.00 h 0 W/m 8.2 C 14.7 C
05.06.2005 04:00 14.3 C 66 % 1019.7 hPa 0.0 l/m 6.3 km/h (2 Bft) W-NW 0.00 h 0 W/m 8.2 C 14.3 C
05.06.2005 05:00 13.8 C 71 % 1019.8 hPa 0.0 l/m 0.1 km/h (0 Bft) N 0.00 h 7 W/m 8.5 C 13.8 C
05.06.2005 06:00 13.7 C 73 % 1019.8 hPa 0.0 l/m 0.0 km/h (0 Bft) N 0.00 h 44 W/m 9.0 C 13.7 C
05.06.2005 07:00 14.3 C 73 % 1020.4 hPa 0.0 l/m 0.9 km/h (0 Bft) S-SW 0.10 h 119 W/m 9.4 C 14.3 C
05.06.2005 08:00 15.1 C 65 % 1020.6 hPa 0.0 l/m 10.3 km/h (2 Bft) W-NW 0.63 h 244 W/m 8.6 C 15.1 C
05.06.2005 09:00 16.0 C 62 % 1020.5 hPa 0.0 l/m 11.2 km/h (2 Bft) W-NW 1.00 h 443 W/m 8.7 C 16.0 C
05.06.2005 10:00 16.9 C 57 % 1019.7 hPa 0.0 l/m 10.1 km/h (2 Bft) W-NW 0.73 h 599 W/m 8.4 C 16.9 C
05.06.2005 11:00 17.9 C 52 % 1019.2 hPa 0.0 l/m 11.4 km/h (2 Bft) W-NW 0.93 h 677 W/m 7.9 C 17.9 C
05.06.2005 12:00 19.2 C 46 % 1019.1 hPa 0.0 l/m 18.6 km/h (3 Bft) NW 0.93 h 815 W/m 7.3 C 19.2 C
05.06.2005 13:00 19.7 C 42 % 1019.0 hPa 0.0 l/m 21.3 km/h (4 Bft) NW 0.90 h 790 W/m 6.4 C 19.7 C
05.06.2005 14:00 19.4 C 45 % 1019.0 hPa 0.0 l/m 28.0 km/h (4 Bft) NW 1.00 h 636 W/m 7.3 C 19.4 C
05.06.2005 15:00 18.8 C 46 % 1018.1 hPa 0.0 l/m 29.0 km/h (5 Bft) NW 0.80 h 447 W/m 6.9 C 18.8 C
05.06.2005 16:00 19.3 C 45 % 1018.0 hPa 0.0 l/m 24.0 km/h (4 Bft) NW 0.97 h 481 W/m 6.9 C 19.3 C
05.06.2005 17:00 18.8 C 47 % 1018.1 hPa 0.0 l/m 16.3 km/h (3 Bft) W-NW 0.08 h 230 W/m 7.4 C 18.8 C
05.06.2005 18:00 18.5 C 48 % 1018.1 hPa 0.0 l/m 19.2 km/h (3 Bft) W-NW 0.00 h 141 W/m 7.4 C 18.5 C
05.06.2005 19:00 18.0 C 49 % 1018.2 hPa 0.0 l/m 16.9 km/h (3 Bft) W-NW 0.00 h 67 W/m 7.2 C 18.0 C
05.06.2005 20:00 17.4 C 50 % 1018.3 hPa 0.0 l/m 17.1 km/h (3 Bft) NW 0.00 h 30 W/m 6.9 C 17.4 C
05.06.2005 21:00 16.6 C 57 % 1018.5 hPa 0.0 l/m 11.1 km/h (2 Bft) W-NW 0.00 h 7 W/m 8.0 C 16.6 C
05.06.2005 22:00 16.1 C 61 % 1019.5 hPa 0.0 l/m 4.7 km/h (1 Bft) W-NW 0.00 h 0 W/m 8.6 C 16.1 C
05.06.2005 23:00 15.8 C 65 % 1019.5 hPa 0.0 l/m 7.2 km/h (2 Bft) W-NW 0.00 h 0 W/m 9.1 C 15.8 C
Min-Datum _ 31.05.05 03.06.05 03.06.05 - 30.05.05 - - - 01.06.05 31.05.05
_ Min-Zeit 05:55 17:03 18:57 - 00:01 - - - 16:05 05:53
Minimum _ 7.4 C 20 % 1007.7 hPa - 0.0 km/h (0 Bft) - - - 4.6 C 6.9 C
Max-Datum _ 03.06.05 31.05.05 31.05.05 30.05.05 03.06.05 - 01.06.05 05.06.05 30.05.05 03.06.05
_ Max-Zeit 16:39 04:27 05:55 15:47 22:05 - 17:34 11:09 02:55 16:39
Maximum _ 30.8 C 100 % 1027.9 hPa 3.2 l/m 62.1 km/h
W-NW (8 Bft)
- 0.08 h 990 W/m 17.9 C 30.8 C
Durchschnitt _ 17.0 C 68 % 1018.8 hPa #9.1 l/m 7.9 km/h (2 Bft) W-NW #69:18 h 364 W/m 10.3 C 17.0 C

Durchschnitt Minimum Temp.16.4 C
Durchschnitt Maximum Temp.17.7 C
© Kaiko 2005